createdAt,value
2024-01-11T00:01:20.428Z,-5.42
2024-01-11T00:03:46.928Z,-5.14
2024-01-11T00:06:13.415Z,-5.49
2024-01-11T00:08:39.989Z,-5.47
2024-01-11T00:11:06.540Z,-5.40
2024-01-11T00:13:32.949Z,-5.45
2024-01-11T00:15:59.378Z,-5.62
2024-01-11T00:18:26.222Z,-5.49
2024-01-11T00:20:53.020Z,-5.44
2024-01-11T00:23:23.727Z,-5.49
2024-01-11T00:25:50.198Z,-5.55
2024-01-11T00:28:16.616Z,-5.68
2024-01-11T00:30:43.207Z,-5.54
2024-01-11T00:33:10.552Z,-5.51
2024-01-11T00:35:37.123Z,-5.51
2024-01-11T00:38:03.791Z,-5.47
2024-01-11T00:40:30.228Z,-5.59
2024-01-11T00:42:56.615Z,-5.61
2024-01-11T00:45:23.057Z,-5.51
2024-01-11T00:47:49.573Z,-5.60
2024-01-11T00:50:16.184Z,-5.55
2024-01-11T00:52:42.629Z,-5.70
2024-01-11T00:55:09.275Z,-5.58
2024-01-11T00:57:35.731Z,-5.67
2024-01-11T01:00:02.136Z,-5.81
2024-01-11T01:02:28.574Z,-5.90
2024-01-11T01:04:55.173Z,-5.74
2024-01-11T01:07:21.609Z,-5.75
2024-01-11T01:09:47.992Z,-5.68
2024-01-11T01:12:14.376Z,-5.48
2024-01-11T01:14:40.857Z,-5.60
2024-01-11T01:17:07.359Z,-5.85
2024-01-11T01:19:34.414Z,-5.85
2024-01-11T01:22:00.968Z,-5.85
2024-01-11T01:24:27.385Z,-5.80
2024-01-11T01:26:53.845Z,-5.94
2024-01-11T01:29:20.303Z,-5.99
2024-01-11T01:31:46.895Z,-5.89
2024-01-11T01:34:13.443Z,-5.88
2024-01-11T01:36:39.991Z,-5.84
2024-01-11T01:39:06.367Z,-5.94
2024-01-11T01:41:32.979Z,-5.92
2024-01-11T01:43:59.516Z,-5.92
2024-01-11T01:46:27.050Z,-5.97
2024-01-11T01:48:55.166Z,-5.86
2024-01-11T01:51:23.443Z,-5.99
2024-01-11T01:53:53.197Z,-5.93
2024-01-11T01:56:21.259Z,-5.94
2024-01-11T01:58:50.978Z,-5.92
2024-01-11T02:01:18.004Z,-6.06
2024-01-11T02:03:44.698Z,-6.00
2024-01-11T02:06:11.351Z,-6.02
2024-01-11T02:08:39.241Z,-6.12
2024-01-11T02:11:06.607Z,-6.08
2024-01-11T02:13:33.417Z,-6.05
2024-01-11T02:15:59.822Z,-5.93
2024-01-11T02:18:26.265Z,-5.99
2024-01-11T02:20:52.902Z,-6.14
2024-01-11T02:23:22.583Z,-5.97
2024-01-11T02:25:48.978Z,-5.95
2024-01-11T02:28:15.752Z,-6.06
2024-01-11T02:30:42.249Z,-6.12
2024-01-11T02:33:09.521Z,-6.00
2024-01-11T02:35:38.486Z,-5.94
2024-01-11T02:38:06.548Z,-5.96
2024-01-11T02:40:33.870Z,-6.10
2024-01-11T02:43:08.623Z,-6.00
2024-01-11T02:45:35.068Z,-6.00
2024-01-11T02:48:01.578Z,-5.98
2024-01-11T02:50:28.152Z,-5.91
2024-01-11T02:52:54.648Z,-5.86
2024-01-11T02:55:21.179Z,-6.16
2024-01-11T02:57:48.977Z,-6.18
2024-01-11T03:00:15.525Z,-6.20
2024-01-11T03:02:42.488Z,-6.36
2024-01-11T03:05:09.177Z,-6.14
2024-01-11T03:07:35.635Z,-6.09
2024-01-11T03:10:02.505Z,-6.14
2024-01-11T03:12:29.672Z,-6.24
2024-01-11T03:14:56.220Z,-6.24
2024-01-11T03:17:22.835Z,-6.19
2024-01-11T03:19:49.365Z,-6.32
2024-01-11T03:22:15.792Z,-6.46
2024-01-11T03:24:42.300Z,-6.35
2024-01-11T03:27:08.754Z,-6.29
2024-01-11T03:29:35.308Z,-6.52
2024-01-11T03:32:01.944Z,-6.35
2024-01-11T03:34:28.607Z,-6.42
2024-01-11T03:36:55.163Z,-6.36
2024-01-11T03:39:21.570Z,-6.37
2024-01-11T03:41:48.366Z,-6.37
2024-01-11T03:44:14.849Z,-6.40
2024-01-11T03:46:41.260Z,-6.58
2024-01-11T03:49:08.882Z,-6.42
2024-01-11T03:51:35.835Z,-6.52
2024-01-11T03:54:02.271Z,-6.46
2024-01-11T03:56:28.760Z,-6.50
2024-01-11T03:58:55.266Z,-6.54
2024-01-11T04:01:21.785Z,-6.53
2024-01-11T04:03:48.305Z,-6.57
2024-01-11T04:06:25.348Z,-6.65
2024-01-11T04:08:52.072Z,-6.53
2024-01-11T04:11:18.644Z,-6.57
2024-01-11T04:13:45.122Z,-6.63
2024-01-11T04:16:11.614Z,-6.67
2024-01-11T04:18:38.288Z,-6.68
2024-01-11T04:21:04.962Z,-6.64
2024-01-11T04:23:31.590Z,-6.71
2024-01-11T04:25:58.053Z,-6.52
2024-01-11T04:28:24.459Z,-6.55
2024-01-11T04:30:50.973Z,-6.52
2024-01-11T04:33:17.556Z,-6.65
2024-01-11T04:35:44.115Z,-6.64
2024-01-11T04:38:10.759Z,-6.61
2024-01-11T04:40:37.228Z,-6.48
2024-01-11T04:43:04.070Z,-6.52
2024-01-11T04:45:30.540Z,-6.42
2024-01-11T04:47:57.267Z,-6.37
2024-01-11T04:50:23.834Z,-6.53
2024-01-11T04:52:50.263Z,-6.73
2024-01-11T04:55:16.687Z,-6.76
2024-01-11T04:57:43.218Z,-6.84
2024-01-11T05:00:09.983Z,-6.63
2024-01-11T05:02:36.645Z,-6.54
2024-01-11T05:05:03.185Z,-6.73
2024-01-11T05:07:29.719Z,-6.88
2024-01-11T05:09:56.144Z,-6.76
2024-01-11T05:12:22.624Z,-6.72
2024-01-11T05:14:49.102Z,-6.70
2024-01-11T05:17:15.620Z,-6.89
2024-01-11T05:19:42.095Z,-6.81
2024-01-11T05:22:08.506Z,-6.71
2024-01-11T05:24:35.198Z,-6.71
2024-01-11T05:27:01.858Z,-6.87
2024-01-11T05:29:28.367Z,-6.87
2024-01-11T05:31:55.096Z,-6.64
2024-01-11T05:34:21.738Z,-6.76
2024-01-11T05:36:48.203Z,-6.63
2024-01-11T05:39:14.680Z,-6.68
2024-01-11T05:41:44.707Z,-6.80
2024-01-11T05:44:11.191Z,-6.64
2024-01-11T05:46:37.670Z,-6.88
2024-01-11T05:49:04.578Z,-6.97
2024-01-11T05:51:30.977Z,-6.87
2024-01-11T05:53:57.359Z,-6.89
2024-01-11T05:56:23.829Z,-6.86
2024-01-11T05:58:50.265Z,-6.89
2024-01-11T06:01:16.875Z,-6.68
2024-01-11T06:03:43.376Z,-6.86
2024-01-11T06:06:10.335Z,-6.78
2024-01-11T06:08:37.272Z,-6.65
2024-01-11T06:11:05.104Z,-6.83
2024-01-11T06:13:31.597Z,-6.68
2024-01-11T06:15:58.068Z,-6.62
2024-01-11T06:18:25.115Z,-6.57
2024-01-11T06:20:51.641Z,-6.60
2024-01-11T06:23:18.546Z,-6.73
2024-01-11T06:25:47.194Z,-6.63
2024-01-11T06:28:13.634Z,-6.79
2024-01-11T06:30:40.141Z,-6.90
2024-01-11T06:33:06.794Z,-6.93
2024-01-11T06:35:33.425Z,-6.98
2024-01-11T06:37:59.884Z,-7.07
2024-01-11T06:40:26.445Z,-6.98
2024-01-11T06:42:52.889Z,-6.61
2024-01-11T06:45:20.082Z,-6.86
2024-01-11T06:47:47.439Z,-7.02
2024-01-11T06:50:14.097Z,-6.83
2024-01-11T06:52:40.585Z,-6.84
2024-01-11T06:55:07.613Z,-6.96
2024-01-11T06:57:34.003Z,-6.99
2024-01-11T07:00:00.550Z,-7.11
2024-01-11T07:02:27.115Z,-7.13
2024-01-11T07:04:58.104Z,-7.31
2024-01-11T07:07:24.611Z,-7.27
2024-01-11T07:09:51.186Z,-7.11
2024-01-11T07:12:18.161Z,-7.06
2024-01-11T07:14:44.614Z,-7.12
2024-01-11T07:17:11.079Z,-7.09
2024-01-11T07:19:38.071Z,-7.07
2024-01-11T07:22:04.945Z,-7.03
2024-01-11T07:24:38.277Z,-7.08
2024-01-11T07:27:08.014Z,-7.26
2024-01-11T07:29:34.834Z,-7.15
2024-01-11T07:32:01.483Z,-7.20
2024-01-11T07:34:28.983Z,-6.92
2024-01-11T07:36:55.691Z,-6.81
2024-01-11T07:39:23.553Z,-6.78
2024-01-11T07:41:50.030Z,-7.05
2024-01-11T07:44:16.497Z,-6.90
2024-01-11T07:46:50.462Z,-6.93
2024-01-11T07:49:21.469Z,-6.82
2024-01-11T07:51:48.062Z,-6.73
2024-01-11T07:54:14.470Z,-6.89
2024-01-11T07:56:41.700Z,-7.00
2024-01-11T07:59:08.280Z,-7.03
2024-01-11T08:01:36.476Z,-6.89
2024-01-11T08:04:04.023Z,-6.70
2024-01-11T08:06:30.814Z,-6.68
2024-01-11T08:08:57.731Z,-6.60
2024-01-11T08:11:24.203Z,-6.55
2024-01-11T08:13:50.688Z,-6.55
2024-01-11T08:16:18.840Z,-6.35
2024-01-11T08:18:46.140Z,-6.33
2024-01-11T08:21:12.883Z,-6.22
2024-01-11T08:23:46.681Z,-6.08
2024-01-11T08:26:15.067Z,-5.98
2024-01-11T08:28:42.365Z,-5.90
2024-01-11T08:31:09.857Z,-5.78
2024-01-11T08:33:38.104Z,-5.63
2024-01-11T08:36:05.892Z,-5.62
2024-01-11T08:38:32.965Z,-5.60
2024-01-11T08:40:59.915Z,-5.51
2024-01-11T08:43:27.550Z,-5.46
2024-01-11T08:45:54.213Z,-5.42
2024-01-11T08:48:20.847Z,-5.40
2024-01-11T08:50:47.325Z,-5.33
2024-01-11T08:53:13.872Z,-5.27
2024-01-11T08:55:40.301Z,-5.24
2024-01-11T08:58:07.063Z,-5.26
2024-01-11T09:00:33.633Z,-5.08
2024-01-11T09:03:00.802Z,-4.99
2024-01-11T09:05:27.278Z,-4.82
2024-01-11T09:07:54.559Z,-4.96
2024-01-11T09:10:21.157Z,-4.85
2024-01-11T09:12:47.806Z,-4.87
2024-01-11T09:15:14.338Z,-4.74
2024-01-11T09:17:40.882Z,-4.70
2024-01-11T09:20:07.725Z,-4.60
2024-01-11T09:22:34.160Z,-4.39
2024-01-11T09:25:00.614Z,-4.09
2024-01-11T09:27:27.042Z,-4.11
2024-01-11T09:29:56.690Z,-3.92
2024-01-11T09:32:23.723Z,-3.83
2024-01-11T09:34:51.753Z,-3.68
2024-01-11T09:37:18.277Z,-3.60
2024-01-11T09:39:44.748Z,-3.47
2024-01-11T09:42:11.768Z,-3.40
2024-01-11T09:44:41.739Z,-3.30
2024-01-11T09:47:12.674Z,-3.23
2024-01-11T09:49:43.433Z,-3.16
2024-01-11T09:52:12.048Z,-3.23
2024-01-11T09:54:38.972Z,-3.06
2024-01-11T09:57:06.421Z,-3.00
2024-01-11T09:59:35.067Z,-2.93
2024-01-11T10:02:02.217Z,-2.83
2024-01-11T10:04:29.543Z,-2.67
2024-01-11T10:06:57.541Z,-2.58
2024-01-11T10:09:24.124Z,-2.42
2024-01-11T10:11:52.132Z,-2.19
2024-01-11T10:14:18.643Z,-2.17
2024-01-11T10:16:45.154Z,-2.14
2024-01-11T10:19:14.880Z,-2.03
2024-01-11T10:21:41.563Z,-1.66
2024-01-11T10:24:08.240Z,-1.69
2024-01-11T10:26:34.868Z,-1.85
2024-01-11T10:29:01.571Z,-1.71
2024-01-11T10:31:30.999Z,-1.65
2024-01-11T10:33:58.909Z,-1.55
2024-01-11T10:36:26.616Z,-1.65
2024-01-11T10:38:54.922Z,-1.45
2024-01-11T10:41:21.729Z,-1.34
2024-01-11T10:43:49.556Z,-1.26
2024-01-11T10:46:17.916Z,-1.16
2024-01-11T10:48:45.400Z,-1.12
2024-01-11T10:51:17.294Z,-1.07
2024-01-11T10:53:48.464Z,-1.24
2024-01-11T10:56:19.206Z,-1.10
2024-01-11T10:58:47.341Z,-0.92
2024-01-11T11:01:14.553Z,-0.93
2024-01-11T11:03:44.188Z,-0.79
2024-01-11T11:06:12.716Z,-0.63
2024-01-11T11:08:40.975Z,-0.24
2024-01-11T11:11:08.866Z,-0.53
2024-01-11T11:13:38.459Z,-0.44
2024-01-11T11:16:05.392Z,-0.43
2024-01-11T11:18:36.054Z,-0.34
2024-01-11T11:21:09.603Z,0.01
2024-01-11T11:23:36.125Z,0.02
2024-01-11T11:26:02.668Z,-0.09
2024-01-11T11:28:29.119Z,-0.25
2024-01-11T11:30:57.783Z,-0.06
2024-01-11T11:33:25.474Z,0.15
2024-01-11T11:35:58.329Z,0.37
2024-01-11T11:38:27.558Z,0.34
2024-01-11T11:40:55.674Z,0.55
2024-01-11T11:43:22.930Z,0.74
2024-01-11T11:45:51.099Z,0.75
2024-01-11T11:48:29.723Z,0.96
2024-01-11T11:51:23.167Z,0.91
2024-01-11T11:53:52.521Z,0.94
2024-01-11T11:56:21.869Z,1.06
2024-01-11T11:58:50.645Z,1.23
2024-01-11T12:01:20.875Z,1.23
2024-01-11T12:03:51.104Z,1.14
2024-01-11T12:06:20.020Z,1.24
2024-01-11T12:08:48.308Z,1.32
2024-01-11T12:11:23.768Z,1.47
2024-01-11T12:13:51.467Z,1.55
2024-01-11T12:16:18.052Z,1.76
2024-01-11T12:18:44.742Z,1.85
2024-01-11T12:21:11.512Z,1.91
2024-01-11T12:23:40.292Z,2.02
2024-01-11T12:26:14.682Z,2.07
2024-01-11T12:28:42.861Z,1.97
2024-01-11T12:31:10.212Z,1.90
2024-01-11T12:33:39.275Z,1.91
2024-01-11T12:36:08.397Z,1.98
2024-01-11T12:38:35.355Z,2.13
2024-01-11T12:41:02.084Z,2.09
2024-01-11T12:43:28.705Z,2.34
2024-01-11T12:45:56.167Z,2.18
2024-01-11T12:48:22.987Z,2.15
2024-01-11T12:50:49.585Z,2.26
2024-01-11T12:53:19.648Z,2.25
2024-01-11T12:55:54.751Z,2.40
2024-01-11T12:58:27.027Z,2.41
2024-01-11T13:00:54.288Z,2.51
2024-01-11T13:03:21.767Z,2.49
2024-01-11T13:05:49.553Z,2.62
2024-01-11T13:08:17.864Z,2.60
2024-01-11T13:10:48.502Z,2.68
2024-01-11T13:13:15.090Z,2.76
2024-01-11T13:15:41.716Z,2.84
2024-01-11T13:18:08.170Z,2.62
2024-01-11T13:20:34.667Z,2.76
2024-01-11T13:23:17.326Z,2.89
2024-01-11T13:25:45.330Z,2.74
2024-01-11T13:28:14.731Z,2.80
2024-01-11T13:30:42.454Z,2.73
2024-01-11T13:33:09.955Z,2.72
2024-01-11T13:35:37.730Z,3.07
2024-01-11T13:38:04.616Z,2.92
2024-01-11T13:40:34.358Z,3.06
2024-01-11T13:43:01.168Z,2.97
2024-01-11T13:45:27.672Z,3.03
2024-01-11T13:47:55.249Z,3.07
2024-01-11T13:50:23.445Z,3.17
2024-01-11T13:52:51.756Z,3.21
2024-01-11T13:55:24.275Z,3.22
2024-01-11T13:57:53.667Z,3.37
2024-01-11T14:00:20.687Z,3.15
2024-01-11T14:02:48.556Z,3.25
2024-01-11T14:05:18.379Z,3.42
2024-01-11T14:07:49.075Z,3.09
2024-01-11T14:10:16.187Z,3.24
2024-01-11T14:12:42.878Z,3.26
2024-01-11T14:15:13.911Z,3.34
2024-01-11T14:17:41.746Z,3.33
2024-01-11T14:20:15.977Z,3.21
2024-01-11T14:22:48.114Z,3.35
2024-01-11T14:25:14.666Z,3.35
2024-01-11T14:27:42.182Z,3.19
2024-01-11T14:30:10.584Z,3.19
2024-01-11T14:32:38.307Z,3.15
2024-01-11T14:35:06.881Z,3.21
2024-01-11T14:37:35.108Z,3.34
2024-01-11T14:40:01.747Z,3.37
2024-01-11T14:42:28.839Z,3.20
2024-01-11T14:44:55.448Z,3.28
2024-01-11T14:47:22.993Z,3.39
2024-01-11T14:49:49.937Z,3.31
2024-01-11T14:52:18.465Z,3.31
2024-01-11T14:54:45.789Z,3.18
2024-01-11T14:57:14.187Z,3.19
2024-01-11T14:59:40.827Z,3.04
2024-01-11T15:02:07.831Z,3.12
2024-01-11T15:04:34.349Z,3.06
2024-01-11T15:07:00.795Z,2.97
2024-01-11T15:09:27.543Z,2.89
2024-01-11T15:11:54.125Z,2.77
2024-01-11T15:14:20.705Z,2.61
2024-01-11T15:16:49.084Z,2.64
2024-01-11T15:19:15.801Z,2.53
2024-01-11T15:21:47.387Z,2.38
2024-01-11T15:24:16.440Z,2.42
2024-01-11T15:26:43.007Z,2.41
2024-01-11T15:29:09.586Z,2.09
2024-01-11T15:31:39.630Z,2.01
2024-01-11T15:34:06.469Z,1.94
2024-01-11T15:36:33.134Z,1.54
2024-01-11T15:39:08.085Z,1.44
2024-01-11T15:41:43.284Z,1.16
2024-01-11T15:44:09.803Z,1.13
2024-01-11T15:46:36.308Z,1.02
2024-01-11T15:49:02.850Z,0.86
2024-01-11T15:51:29.372Z,0.71
2024-01-11T15:53:56.377Z,0.54
2024-01-11T15:56:22.864Z,0.53
2024-01-11T15:58:49.656Z,0.34
2024-01-11T16:01:16.102Z,0.29
2024-01-11T16:03:42.731Z,0.21
2024-01-11T16:06:10.047Z,0.08
2024-01-11T16:08:36.653Z,-0.09
2024-01-11T16:11:03.198Z,-0.07
2024-01-11T16:13:29.574Z,-0.23
2024-01-11T16:15:57.492Z,-0.34
2024-01-11T16:18:27.211Z,-0.19
2024-01-11T16:20:55.672Z,-0.35
2024-01-11T16:23:22.354Z,-0.36
2024-01-11T16:25:48.785Z,-0.39
2024-01-11T16:28:15.274Z,-0.35
2024-01-11T16:30:41.703Z,-0.49
2024-01-11T16:33:09.571Z,-0.63
2024-01-11T16:35:44.802Z,-0.70
2024-01-11T16:38:16.017Z,-0.82
2024-01-11T16:40:42.488Z,-0.93
2024-01-11T16:43:11.901Z,-0.96
2024-01-11T16:45:38.513Z,-0.97
2024-01-11T16:48:07.919Z,-0.76
2024-01-11T16:50:34.538Z,-0.90
2024-01-11T16:53:01.032Z,-1.08
2024-01-11T16:55:27.632Z,-1.13
2024-01-11T16:57:54.268Z,-1.02
2024-01-11T17:00:21.604Z,-0.84
2024-01-11T17:02:48.081Z,-0.79
2024-01-11T17:05:14.811Z,-0.77
2024-01-11T17:07:41.641Z,-1.26
2024-01-11T17:10:08.300Z,-1.17
2024-01-11T17:12:34.730Z,-1.18
2024-01-11T17:15:01.228Z,-1.01
2024-01-11T17:17:27.796Z,-0.85
2024-01-11T17:19:54.545Z,-0.69
2024-01-11T17:22:21.037Z,-0.51
2024-01-11T17:24:47.494Z,-0.49
2024-01-11T17:27:15.708Z,-0.36
2024-01-11T17:29:43.150Z,-0.03
2024-01-11T17:32:09.735Z,0.18
2024-01-11T17:34:36.352Z,0.15
2024-01-11T17:37:02.906Z,0.22
2024-01-11T17:39:30.275Z,0.26
2024-01-11T17:42:00.496Z,0.37
2024-01-11T17:44:29.950Z,0.43
2024-01-11T17:46:56.376Z,0.50
2024-01-11T17:49:22.884Z,0.58
2024-01-11T17:51:49.400Z,0.60
2024-01-11T17:54:15.816Z,0.63
2024-01-11T17:56:42.607Z,0.61
2024-01-11T17:59:10.580Z,0.69
2024-01-11T18:01:37.312Z,0.76
2024-01-11T18:04:06.835Z,0.82
2024-01-11T18:06:33.956Z,0.71
2024-01-11T18:09:00.735Z,0.52
2024-01-11T18:11:27.361Z,0.46
2024-01-11T18:13:54.044Z,0.29
2024-01-11T18:16:23.539Z,0.05
2024-01-11T18:18:50.708Z,-0.06
2024-01-11T18:21:17.547Z,0.02
2024-01-11T18:23:44.215Z,-0.03
2024-01-11T18:26:11.207Z,-0.19
2024-01-11T18:28:38.022Z,-0.20
2024-01-11T18:31:05.011Z,-0.45
2024-01-11T18:33:31.652Z,-0.53
2024-01-11T18:35:58.136Z,-0.70
2024-01-11T18:38:24.712Z,-0.95
2024-01-11T18:40:51.153Z,-1.04
2024-01-11T18:43:20.573Z,-1.16
2024-01-11T18:45:48.717Z,-1.23
2024-01-11T18:48:17.558Z,-1.27
2024-01-11T18:50:44.379Z,-1.17
2024-01-11T18:53:11.091Z,-0.83
2024-01-11T18:55:37.653Z,-0.74
2024-01-11T18:58:05.552Z,-0.51
2024-01-11T19:00:35.784Z,-0.21
2024-01-11T19:03:02.640Z,-0.31
2024-01-11T19:05:29.402Z,-0.60
2024-01-11T19:07:55.904Z,-0.73
2024-01-11T19:10:22.302Z,-0.47
2024-01-11T19:12:48.890Z,-0.35
2024-01-11T19:15:15.362Z,-0.10
2024-01-11T19:17:41.898Z,-0.06
2024-01-11T19:20:08.816Z,0.04
2024-01-11T19:22:35.637Z,0.15
2024-01-11T19:25:03.688Z,0.04
2024-01-11T19:27:30.138Z,0.07
2024-01-11T19:29:57.497Z,0.05
2024-01-11T19:32:24.075Z,-0.25
2024-01-11T19:34:50.782Z,0.04
2024-01-11T19:37:18.883Z,-0.02
2024-01-11T19:39:49.054Z,0.13
2024-01-11T19:42:15.479Z,0.15
2024-01-11T19:44:41.962Z,0.21
2024-01-11T19:47:08.595Z,0.31
2024-01-11T19:49:35.247Z,0.17
2024-01-11T19:52:01.714Z,0.12
2024-01-11T19:54:28.219Z,0.12
2024-01-11T19:56:54.918Z,0.02
2024-01-11T19:59:21.518Z,0.13
2024-01-11T20:01:49.479Z,0.03
2024-01-11T20:04:17.044Z,0.07
2024-01-11T20:06:44.428Z,-0.21
2024-01-11T20:09:12.293Z,-0.17
2024-01-11T20:11:40.098Z,-0.22
2024-01-11T20:14:08.208Z,-0.43
2024-01-11T20:16:36.857Z,-0.55
2024-01-11T20:19:03.412Z,-0.61
2024-01-11T20:21:29.984Z,-0.88
2024-01-11T20:23:56.418Z,-0.96
2024-01-11T20:26:26.834Z,-0.91
2024-01-11T20:28:54.045Z,-0.61
2024-01-11T20:31:21.954Z,-0.46
2024-01-11T20:33:48.793Z,-0.51
2024-01-11T20:36:15.496Z,-0.44
2024-01-11T20:38:42.055Z,-0.34
2024-01-11T20:41:08.812Z,-0.39
2024-01-11T20:43:35.373Z,-0.51
2024-01-11T20:46:01.779Z,-0.74
2024-01-11T20:48:40.191Z,-0.89
2024-01-11T20:51:09.460Z,-1.22
2024-01-11T20:53:36.632Z,-1.24
2024-01-11T20:56:04.243Z,-1.39
2024-01-11T20:58:31.257Z,-1.26
2024-01-11T21:00:58.463Z,-1.30
2024-01-11T21:03:25.638Z,-1.43
2024-01-11T21:05:55.341Z,-1.30
2024-01-11T21:08:22.271Z,-1.05
2024-01-11T21:10:49.158Z,-0.92
2024-01-11T21:13:16.791Z,-0.91
2024-01-11T21:15:43.580Z,-0.73
2024-01-11T21:18:10.879Z,-0.55
2024-01-11T21:20:38.350Z,-0.35
2024-01-11T21:23:04.911Z,-0.24
2024-01-11T21:25:31.684Z,-0.23
2024-01-11T21:27:59.737Z,-0.25
2024-01-11T21:30:26.278Z,-0.21
2024-01-11T21:32:52.698Z,-0.13
2024-01-11T21:35:19.631Z,-0.19
2024-01-11T21:37:50.144Z,-0.03
2024-01-11T21:40:20.142Z,-0.23
2024-01-11T21:42:47.577Z,-0.34
2024-01-11T21:45:14.120Z,-0.52
2024-01-11T21:47:40.741Z,-0.53
2024-01-11T21:50:07.537Z,-0.32
2024-01-11T21:52:34.112Z,-0.31
2024-01-11T21:55:00.653Z,-0.29
2024-01-11T21:57:27.059Z,-0.13
2024-01-11T21:59:54.015Z,-0.16
2024-01-11T22:02:20.472Z,-0.40
2024-01-11T22:04:46.860Z,-0.53
2024-01-11T22:07:13.480Z,-0.56
2024-01-11T22:09:40.125Z,-0.51
2024-01-11T22:12:06.932Z,-0.75
2024-01-11T22:14:33.471Z,-0.73
2024-01-11T22:16:59.830Z,-0.77
2024-01-11T22:19:29.458Z,-0.74
2024-01-11T22:21:55.885Z,-1.01
2024-01-11T22:24:22.281Z,-0.82
2024-01-11T22:26:48.837Z,-0.91
2024-01-11T22:29:15.370Z,-1.00
2024-01-11T22:31:41.765Z,-0.83
2024-01-11T22:34:08.233Z,-0.67
2024-01-11T22:36:35.700Z,-0.58
2024-01-11T22:39:02.087Z,-0.40
2024-01-11T22:41:30.563Z,-0.92
2024-01-11T22:43:57.622Z,-0.74
2024-01-11T22:46:23.982Z,-0.60
2024-01-11T22:48:50.471Z,-0.54
2024-01-11T22:51:18.450Z,-0.49
2024-01-11T22:53:45.817Z,-0.55
2024-01-11T22:56:12.272Z,-0.42
2024-01-11T22:58:38.724Z,-0.41
2024-01-11T23:01:05.168Z,-0.58
2024-01-11T23:03:31.652Z,-0.76
2024-01-11T23:05:58.524Z,-0.94
2024-01-11T23:08:24.934Z,-1.20
2024-01-11T23:10:51.518Z,-1.23
2024-01-11T23:13:17.869Z,-1.01
2024-01-11T23:15:44.252Z,-0.86
2024-01-11T23:18:11.543Z,-0.65
2024-01-11T23:20:38.155Z,-0.80
2024-01-11T23:23:04.767Z,-0.85
2024-01-11T23:25:33.737Z,-1.07
2024-01-11T23:28:01.400Z,-0.67
2024-01-11T23:30:27.820Z,-0.72
2024-01-11T23:32:54.285Z,-0.62
2024-01-11T23:35:20.795Z,-0.98
2024-01-11T23:37:48.104Z,-0.92
2024-01-11T23:40:14.677Z,-1.03
2024-01-11T23:42:41.062Z,-1.17
2024-01-11T23:45:07.976Z,-1.02
2024-01-11T23:47:35.635Z,-1.17
2024-01-11T23:50:02.301Z,-1.27
2024-01-11T23:52:28.805Z,-1.42
2024-01-11T23:54:55.216Z,-1.65
2024-01-11T23:57:21.644Z,-1.69
2024-01-11T23:59:48.163Z,-1.96
